Terminal Aerodrome Forecast
Issued by NWS

Home | Current Version | Previous Version | Text Only | Print | Product List | Glossary On
Versions: 1 2 3 4 5 6 7 8 9 10 11 12 13 14 15 16 17 18 19
000
FTUS45 KGJT 241133
TAFTEX
TAF
KTEX 241133Z 2412/2512 12003KT P6SM SKC
     FM241700 24008KT P6SM FEW200
     FM242100 27012G24KT P6SM FEW200
     FM250100 24011G21KT P6SM SCT200
     FM250400 20006KT P6SM SCT200 WS020/25035KT
     FM250700 23009KT P6SM SCT150 WS020/26040KT=

USA.gov is the U.S. government's official web portal to all federal, state and local government web resources and services.